VIR628 EDDF-EGLL
Flight info
| Callsign | VIR628 |
|---|---|
| Flight time | 1h 7m |
| Altitude | 34000 |
| Route | SOBRA2L/18 SOBRA Y180 BITBU Y181 DEMUL M624 BUB L608 SASKI DCT XAMAN L980 LOGAN |
| Aircraft | A339/H-SADE1E2E3GHIJ3J5M1P2RWXY/LB2D1 |
Departure
| Time | 2026-05-07 17:49 |
|---|---|
| Airport | Frankfurt Main Airport (EDDF) |
Arrival
| Time | 2026-05-07 18:56 |
|---|---|
| Airport | London Heathrow Airport (EGLL) |
| Time | Latitude | Longitude | Altitude | Speed | Heading |
|---|---|---|---|---|---|
| 2026-05-07 17:20 | 50.04751 | 8.57127 | 370 ft | 0 kts | 120° |
| 2026-05-07 17:35 | 50.04754 | 8.57118 | 367 ft | 2 kts | 122° |
| 2026-05-07 17:35 | 50.04758 | 8.57100 | 370 ft | 2 kts | 173° |
| 2026-05-07 17:36 | 50.04771 | 8.57090 | 373 ft | 2 kts | 128° |
| 2026-05-07 17:36 | 50.04782 | 8.57069 | 367 ft | 2 kts | 163° |
| 2026-05-07 17:36 | 50.04798 | 8.57064 | 367 ft | 2 kts | 168° |
| 2026-05-07 17:36 | 50.04814 | 8.57058 | 367 ft | 2 kts | 188° |
| 2026-05-07 17:37 | 50.04828 | 8.57061 | 368 ft | 0 kts | 205° |
| 2026-05-07 17:40 | 50.04817 | 8.57053 | 371 ft | 5 kts | 205° |
| 2026-05-07 17:40 | 50.04769 | 8.57018 | 370 ft | 10 kts | 205° |
| 2026-05-07 17:40 | 50.04703 | 8.56969 | 371 ft | 11 kts | 205° |
| 2026-05-07 17:41 | 50.04629 | 8.56923 | 370 ft | 11 kts | 198° |
| 2026-05-07 17:41 | 50.04550 | 8.56892 | 369 ft | 13 kts | 194° |
| 2026-05-07 17:41 | 50.04461 | 8.56838 | 372 ft | 14 kts | 217° |
| 2026-05-07 17:41 | 50.04419 | 8.56693 | 368 ft | 19 kts | 249° |
| 2026-05-07 17:42 | 50.04355 | 8.56428 | 367 ft | 32 kts | 249° |
| 2026-05-07 17:42 | 50.04277 | 8.56095 | 361 ft | 33 kts | 250° |
| 2026-05-07 17:42 | 50.04228 | 8.55889 | 362 ft | 3 kts | 250° |
| 2026-05-07 17:42 | 50.04217 | 8.55841 | 363 ft | 6 kts | 250° |
| 2026-05-07 17:43 | 50.04200 | 8.55769 | 364 ft | 8 kts | 250° |
| 2026-05-07 17:43 | 50.04184 | 8.55702 | 364 ft | 0 kts | 250° |
| 2026-05-07 17:44 | 50.04177 | 8.55671 | 365 ft | 8 kts | 249° |
| 2026-05-07 17:44 | 50.04148 | 8.55557 | 367 ft | 16 kts | 249° |
| 2026-05-07 17:45 | 50.04104 | 8.55376 | 363 ft | 8 kts | 249° |
| 2026-05-07 17:45 | 50.04084 | 8.55293 | 366 ft | 9 kts | 249° |
| 2026-05-07 17:45 | 50.04067 | 8.55222 | 363 ft | 5 kts | 250° |
| 2026-05-07 17:45 | 50.04050 | 8.55151 | 366 ft | 9 kts | 250° |
| 2026-05-07 17:46 | 50.04020 | 8.55021 | 361 ft | 19 kts | 250° |
| 2026-05-07 17:46 | 50.03953 | 8.54752 | 359 ft | 35 kts | 248° |
| 2026-05-07 17:46 | 50.03857 | 8.54374 | 360 ft | 38 kts | 240° |
| 2026-05-07 17:46 | 50.03750 | 8.54019 | 359 ft | 37 kts | 249° |
| 2026-05-07 17:47 | 50.03661 | 8.53644 | 351 ft | 37 kts | 250° |
| 2026-05-07 17:47 | 50.03568 | 8.53273 | 354 ft | 36 kts | 250° |
| 2026-05-07 17:47 | 50.03484 | 8.52919 | 354 ft | 33 kts | 249° |
| 2026-05-07 17:47 | 50.03392 | 8.52627 | 363 ft | 23 kts | 223° |
| 2026-05-07 17:48 | 50.03272 | 8.52596 | 361 ft | 23 kts | 179° |
| 2026-05-07 17:48 | 50.02870 | 8.52604 | 353 ft | 103 kts | 180° |
| 2026-05-07 17:48 | 50.01884 | 8.52616 | 378 ft | 174 kts | 179° |
| 2026-05-07 17:48 | 50.00569 | 8.52619 | 854 ft | 199 kts | 179° |
| 2026-05-07 17:49 | 49.99102 | 8.52619 | 1484 ft | 221 kts | 179° |
| 2026-05-07 17:49 | 49.97506 | 8.52620 | 2247 ft | 231 kts | 179° |
| 2026-05-07 17:49 | 49.95917 | 8.52706 | 3186 ft | 232 kts | 177° |
| 2026-05-07 17:49 | 49.94280 | 8.52866 | 3720 ft | 236 kts | 176° |
| 2026-05-07 17:50 | 49.92621 | 8.53038 | 4019 ft | 240 kts | 176° |
| 2026-05-07 17:50 | 49.90964 | 8.53197 | 4753 ft | 240 kts | 177° |
| 2026-05-07 17:50 | 49.89303 | 8.53348 | 5700 ft | 239 kts | 178° |
| 2026-05-07 17:50 | 49.87628 | 8.53396 | 6524 ft | 241 kts | 186° |
| 2026-05-07 17:51 | 49.86005 | 8.52861 | 7288 ft | 241 kts | 201° |
| 2026-05-07 17:51 | 49.84401 | 8.51896 | 7819 ft | 256 kts | 203° |
| 2026-05-07 17:51 | 49.82767 | 8.50552 | 8100 ft | 274 kts | 221° |
| 2026-05-07 17:51 | 49.81635 | 8.48230 | 8779 ft | 275 kts | 247° |
| 2026-05-07 17:52 | 49.81250 | 8.45312 | 9545 ft | 278 kts | 271° |
| 2026-05-07 17:52 | 49.81510 | 8.42331 | 10243 ft | 282 kts | 282° |
| 2026-05-07 17:52 | 49.81942 | 8.39296 | 10500 ft | 302 kts | 282° |
| 2026-05-07 17:52 | 49.82357 | 8.35983 | 10698 ft | 323 kts | 279° |
| 2026-05-07 17:53 | 49.82684 | 8.32509 | 11147 ft | 332 kts | 277° |
| 2026-05-07 17:53 | 49.82951 | 8.28910 | 11825 ft | 334 kts | 276° |
| 2026-05-07 17:53 | 49.83184 | 8.25319 | 12489 ft | 337 kts | 276° |
| 2026-05-07 17:53 | 49.83407 | 8.21721 | 13136 ft | 340 kts | 275° |
| 2026-05-07 17:54 | 49.83649 | 8.18059 | 13783 ft | 343 kts | 278° |
| 2026-05-07 17:54 | 49.84407 | 8.14527 | 14357 ft | 346 kts | 296° |
| 2026-05-07 17:54 | 49.85533 | 8.11178 | 14950 ft | 349 kts | 297° |
| 2026-05-07 17:54 | 49.86673 | 8.07849 | 15539 ft | 352 kts | 297° |
| 2026-05-07 17:55 | 49.87830 | 8.04481 | 16128 ft | 355 kts | 297° |
| 2026-05-07 17:55 | 49.88983 | 8.01118 | 16702 ft | 358 kts | 297° |
| 2026-05-07 17:55 | 49.90156 | 7.97683 | 17266 ft | 361 kts | 297° |
| 2026-05-07 17:55 | 49.91332 | 7.94231 | 17850 ft | 364 kts | 297° |
| 2026-05-07 17:56 | 49.92515 | 7.90754 | 18407 ft | 367 kts | 297° |
| 2026-05-07 17:56 | 49.93713 | 7.87226 | 18912 ft | 370 kts | 297° |
| 2026-05-07 17:56 | 49.94924 | 7.83649 | 19423 ft | 372 kts | 297° |
| 2026-05-07 17:56 | 49.96120 | 7.80115 | 19943 ft | 375 kts | 297° |
| 2026-05-07 17:57 | 49.97340 | 7.76503 | 20462 ft | 378 kts | 296° |
| 2026-05-07 17:57 | 49.98151 | 7.74097 | 20814 ft | 380 kts | 296° |
| 2026-05-07 17:57 | 49.99803 | 7.69189 | 21516 ft | 383 kts | 296° |
| 2026-05-07 17:57 | 50.01028 | 7.65544 | 22050 ft | 386 kts | 296° |
| 2026-05-07 17:58 | 50.02283 | 7.61806 | 22566 ft | 389 kts | 296° |
| 2026-05-07 17:58 | 50.03544 | 7.58046 | 23095 ft | 392 kts | 296° |
| 2026-05-07 17:58 | 50.04795 | 7.54308 | 23627 ft | 395 kts | 296° |
| 2026-05-07 17:58 | 50.06071 | 7.50491 | 24081 ft | 398 kts | 296° |
| 2026-05-07 17:59 | 50.07356 | 7.46641 | 24552 ft | 400 kts | 296° |
| 2026-05-07 17:59 | 50.08632 | 7.42812 | 25007 ft | 403 kts | 296° |
| 2026-05-07 17:59 | 50.09935 | 7.38898 | 25448 ft | 406 kts | 296° |
| 2026-05-07 17:59 | 50.11225 | 7.35014 | 25895 ft | 408 kts | 296° |
| 2026-05-07 18:00 | 50.12540 | 7.31048 | 26348 ft | 411 kts | 296° |
| 2026-05-07 18:00 | 50.13861 | 7.27062 | 26790 ft | 413 kts | 296° |
| 2026-05-07 18:00 | 50.15172 | 7.23098 | 27201 ft | 416 kts | 296° |
| 2026-05-07 18:00 | 50.16505 | 7.19061 | 27637 ft | 419 kts | 296° |
| 2026-05-07 18:01 | 50.17835 | 7.15027 | 28035 ft | 421 kts | 296° |
| 2026-05-07 18:01 | 50.18731 | 7.12306 | 28325 ft | 423 kts | 296° |
| 2026-05-07 18:01 | 50.20079 | 7.08207 | 28743 ft | 425 kts | 296° |
| 2026-05-07 18:01 | 50.21423 | 7.04114 | 29135 ft | 428 kts | 296° |
| 2026-05-07 18:02 | 50.24156 | 6.95771 | 29948 ft | 432 kts | 296° |
| 2026-05-07 18:02 | 50.25975 | 6.90202 | 30504 ft | 434 kts | 296° |
| 2026-05-07 18:02 | 50.26886 | 6.87408 | 30763 ft | 435 kts | 296° |
| 2026-05-07 18:03 | 50.28266 | 6.83171 | 31176 ft | 436 kts | 296° |
| 2026-05-07 18:03 | 50.29645 | 6.78927 | 31587 ft | 437 kts | 296° |
| 2026-05-07 18:03 | 50.31021 | 6.74691 | 32007 ft | 437 kts | 296° |
| 2026-05-07 18:03 | 50.32382 | 6.70488 | 32413 ft | 438 kts | 296° |
| 2026-05-07 18:04 | 50.33765 | 6.66213 | 32852 ft | 438 kts | 296° |
| 2026-05-07 18:04 | 50.35148 | 6.61930 | 33274 ft | 438 kts | 296° |
| 2026-05-07 18:04 | 50.36513 | 6.57697 | 33724 ft | 438 kts | 295° |
| 2026-05-07 18:04 | 50.37888 | 6.53426 | 33999 ft | 442 kts | 295° |
| 2026-05-07 18:05 | 50.39285 | 6.49074 | 34048 ft | 449 kts | 295° |
| 2026-05-07 18:05 | 50.42107 | 6.40262 | 34048 ft | 455 kts | 295° |
| 2026-05-07 18:06 | 50.44950 | 6.31364 | 34050 ft | 455 kts | 295° |
| 2026-05-07 18:06 | 50.47770 | 6.22500 | 34045 ft | 455 kts | 295° |
| 2026-05-07 18:07 | 50.50601 | 6.13570 | 34054 ft | 455 kts | 295° |
| 2026-05-07 18:07 | 50.53407 | 6.04685 | 34055 ft | 455 kts | 295° |
| 2026-05-07 18:08 | 50.56208 | 5.95783 | 34048 ft | 455 kts | 295° |
| 2026-05-07 18:08 | 50.59017 | 5.86822 | 34069 ft | 455 kts | 295° |
| 2026-05-07 18:09 | 50.61802 | 5.77910 | 34067 ft | 455 kts | 295° |
| 2026-05-07 18:09 | 50.64582 | 5.68981 | 34072 ft | 455 kts | 295° |
| 2026-05-07 18:10 | 50.67361 | 5.60021 | 34075 ft | 455 kts | 294° |
| 2026-05-07 18:10 | 50.70145 | 5.51010 | 34085 ft | 455 kts | 294° |
| 2026-05-07 18:11 | 50.72904 | 5.42049 | 34077 ft | 454 kts | 294° |
| 2026-05-07 18:11 | 50.75654 | 5.33084 | 34077 ft | 454 kts | 294° |
| 2026-05-07 18:12 | 50.78395 | 5.24116 | 34075 ft | 454 kts | 294° |
| 2026-05-07 18:12 | 50.81129 | 5.15140 | 34074 ft | 454 kts | 294° |
| 2026-05-07 18:13 | 50.83861 | 5.06133 | 34072 ft | 454 kts | 294° |
| 2026-05-07 18:13 | 50.86594 | 4.97091 | 34074 ft | 454 kts | 294° |
| 2026-05-07 18:14 | 50.89298 | 4.88112 | 34073 ft | 454 kts | 294° |
| 2026-05-07 18:14 | 50.92019 | 4.79041 | 34073 ft | 454 kts | 294° |
| 2026-05-07 18:15 | 50.94721 | 4.70003 | 34077 ft | 454 kts | 294° |
| 2026-05-07 18:15 | 50.97414 | 4.60960 | 34075 ft | 454 kts | 294° |
| 2026-05-07 18:16 | 51.00099 | 4.51911 | 34076 ft | 454 kts | 294° |
| 2026-05-07 18:16 | 51.02772 | 4.42865 | 34078 ft | 454 kts | 293° |
| 2026-05-07 18:17 | 51.05456 | 4.33749 | 34073 ft | 454 kts | 293° |
| 2026-05-07 18:17 | 51.08117 | 4.24675 | 34071 ft | 454 kts | 293° |
| 2026-05-07 18:18 | 51.10771 | 4.15593 | 34074 ft | 454 kts | 293° |
| 2026-05-07 18:18 | 51.13429 | 4.06464 | 34070 ft | 453 kts | 293° |
| 2026-05-07 18:19 | 51.16068 | 3.97362 | 34065 ft | 453 kts | 293° |
| 2026-05-07 18:19 | 51.18697 | 3.88263 | 34068 ft | 453 kts | 293° |
| 2026-05-07 18:20 | 51.21343 | 3.79069 | 34070 ft | 453 kts | 293° |
| 2026-05-07 18:20 | 51.23956 | 3.69955 | 34049 ft | 453 kts | 293° |
| 2026-05-07 18:21 | 51.26560 | 3.60834 | 34078 ft | 453 kts | 292° |
| 2026-05-07 18:21 | 51.29179 | 3.51627 | 34064 ft | 453 kts | 292° |
| 2026-05-07 18:22 | 51.31776 | 3.42463 | 34061 ft | 453 kts | 292° |
| 2026-05-07 18:22 | 51.34361 | 3.33305 | 34080 ft | 453 kts | 292° |
| 2026-05-07 18:23 | 51.36952 | 3.24103 | 34079 ft | 453 kts | 292° |
| 2026-05-07 18:23 | 51.39541 | 3.14888 | 34071 ft | 453 kts | 292° |
| 2026-05-07 18:24 | 51.41932 | 3.05530 | 34078 ft | 452 kts | 289° |
| 2026-05-07 18:24 | 51.44098 | 2.96120 | 34075 ft | 452 kts | 288° |
| 2026-05-07 18:25 | 51.46282 | 2.86692 | 34073 ft | 452 kts | 289° |
| 2026-05-07 18:25 | 51.48490 | 2.77214 | 34074 ft | 452 kts | 289° |
| 2026-05-07 18:26 | 51.50680 | 2.67783 | 34074 ft | 452 kts | 289° |
| 2026-05-07 18:26 | 51.52866 | 2.58332 | 34071 ft | 452 kts | 289° |
| 2026-05-07 18:27 | 51.55038 | 2.48893 | 34074 ft | 452 kts | 288° |
| 2026-05-07 18:27 | 51.57217 | 2.39383 | 34065 ft | 452 kts | 288° |
| 2026-05-07 18:28 | 51.59376 | 2.29913 | 34013 ft | 452 kts | 288° |
| 2026-05-07 18:28 | 51.60461 | 2.25143 | 33729 ft | 452 kts | 288° |
| 2026-05-07 18:28 | 51.61537 | 2.20400 | 33454 ft | 452 kts | 288° |
| 2026-05-07 18:28 | 51.62613 | 2.15643 | 33182 ft | 452 kts | 288° |
| 2026-05-07 18:29 | 51.63676 | 2.10936 | 32723 ft | 452 kts | 288° |
| 2026-05-07 18:29 | 51.64759 | 2.06125 | 31786 ft | 455 kts | 288° |
| 2026-05-07 18:29 | 51.65827 | 2.01370 | 30736 ft | 457 kts | 288° |
| 2026-05-07 18:29 | 51.66906 | 1.96564 | 30086 ft | 450 kts | 288° |
| 2026-05-07 18:30 | 51.67960 | 1.91858 | 29516 ft | 440 kts | 288° |
| 2026-05-07 18:30 | 51.68980 | 1.87291 | 28755 ft | 436 kts | 288° |
| 2026-05-07 18:30 | 51.70004 | 1.82693 | 28127 ft | 430 kts | 288° |
| 2026-05-07 18:30 | 51.71012 | 1.78156 | 27484 ft | 425 kts | 288° |
| 2026-05-07 18:31 | 51.71997 | 1.73715 | 26696 ft | 423 kts | 288° |
| 2026-05-07 18:31 | 51.72985 | 1.69248 | 26177 ft | 417 kts | 288° |
| 2026-05-07 18:31 | 51.73870 | 1.64861 | 25680 ft | 411 kts | 283° |
| 2026-05-07 18:31 | 51.74367 | 1.60364 | 24963 ft | 411 kts | 274° |
| 2026-05-07 18:32 | 51.74428 | 1.55736 | 24211 ft | 409 kts | 266° |
| 2026-05-07 18:32 | 51.74122 | 1.51196 | 23750 ft | 402 kts | 263° |
| 2026-05-07 18:32 | 51.73817 | 1.46768 | 23064 ft | 401 kts | 263° |
| 2026-05-07 18:32 | 51.73531 | 1.42343 | 22528 ft | 396 kts | 263° |
| 2026-05-07 18:33 | 51.73249 | 1.37918 | 21879 ft | 395 kts | 263° |
| 2026-05-07 18:33 | 51.72969 | 1.33569 | 21399 ft | 390 kts | 263° |
| 2026-05-07 18:33 | 51.72685 | 1.29210 | 20788 ft | 389 kts | 263° |
| 2026-05-07 18:33 | 51.72398 | 1.24857 | 20107 ft | 386 kts | 263° |
| 2026-05-07 18:34 | 51.72114 | 1.20580 | 19683 ft | 381 kts | 263° |
| 2026-05-07 18:34 | 51.71831 | 1.16348 | 19101 ft | 385 kts | 263° |
| 2026-05-07 18:34 | 51.71542 | 1.12057 | 18552 ft | 380 kts | 263° |
| 2026-05-07 18:34 | 51.71257 | 1.07836 | 17920 ft | 373 kts | 263° |
| 2026-05-07 18:35 | 51.70978 | 1.03722 | 17268 ft | 369 kts | 263° |
| 2026-05-07 18:35 | 51.70696 | 0.99585 | 16820 ft | 372 kts | 263° |
| 2026-05-07 18:35 | 51.70415 | 0.95488 | 16294 ft | 370 kts | 262° |
| 2026-05-07 18:35 | 51.70134 | 0.91391 | 16010 ft | 365 kts | 262° |
| 2026-05-07 18:36 | 51.69850 | 0.87294 | 15293 ft | 369 kts | 262° |
| 2026-05-07 18:36 | 51.69569 | 0.83257 | 14856 ft | 358 kts | 262° |
| 2026-05-07 18:36 | 51.69296 | 0.79331 | 14690 ft | 341 kts | 262° |
| 2026-05-07 18:36 | 51.69039 | 0.75663 | 14523 ft | 324 kts | 262° |
| 2026-05-07 18:37 | 51.68791 | 0.72145 | 14374 ft | 307 kts | 262° |
| 2026-05-07 18:37 | 51.68555 | 0.68799 | 14234 ft | 291 kts | 261° |
| 2026-05-07 18:37 | 51.68330 | 0.65644 | 14104 ft | 275 kts | 261° |
| 2026-05-07 18:37 | 51.68117 | 0.62659 | 13723 ft | 269 kts | 261° |
| 2026-05-07 18:38 | 51.67899 | 0.59670 | 13207 ft | 267 kts | 261° |
| 2026-05-07 18:38 | 51.67682 | 0.56703 | 12705 ft | 265 kts | 261° |
| 2026-05-07 18:38 | 51.67470 | 0.53785 | 12225 ft | 263 kts | 261° |
| 2026-05-07 18:38 | 51.67257 | 0.50869 | 11735 ft | 261 kts | 261° |
| 2026-05-07 18:39 | 51.67046 | 0.47969 | 11230 ft | 259 kts | 261° |
| 2026-05-07 18:39 | 51.66837 | 0.45099 | 10763 ft | 256 kts | 261° |
| 2026-05-07 18:39 | 51.66629 | 0.42290 | 10280 ft | 254 kts | 261° |
| 2026-05-07 18:39 | 51.66422 | 0.39495 | 9903 ft | 248 kts | 261° |
| 2026-05-07 18:40 | 51.66222 | 0.36765 | 9611 ft | 241 kts | 261° |
| 2026-05-07 18:40 | 51.66022 | 0.34072 | 9307 ft | 246 kts | 261° |
| 2026-05-07 18:40 | 51.65816 | 0.31324 | 8998 ft | 244 kts | 261° |
| 2026-05-07 18:40 | 51.65612 | 0.28615 | 8695 ft | 242 kts | 261° |
| 2026-05-07 18:41 | 51.65395 | 0.25937 | 8416 ft | 250 kts | 261° |
| 2026-05-07 18:41 | 51.65157 | 0.22969 | 8161 ft | 275 kts | 262° |
| 2026-05-07 18:41 | 51.64934 | 0.19903 | 8073 ft | 273 kts | 262° |
| 2026-05-07 18:41 | 51.64719 | 0.16911 | 8073 ft | 272 kts | 262° |
| 2026-05-07 18:42 | 51.64508 | 0.13856 | 8075 ft | 274 kts | 264° |
| 2026-05-07 18:42 | 51.64397 | 0.10819 | 8069 ft | 273 kts | 266° |
| 2026-05-07 18:42 | 51.64301 | 0.07757 | 8077 ft | 273 kts | 266° |
| 2026-05-07 18:42 | 51.64206 | 0.04687 | 8070 ft | 273 kts | 266° |
| 2026-05-07 18:43 | 51.64112 | 0.01648 | 8069 ft | 273 kts | 266° |
| 2026-05-07 18:43 | 51.64017 | -0.01410 | 8077 ft | 272 kts | 266° |
| 2026-05-07 18:43 | 51.63922 | -0.04465 | 8065 ft | 272 kts | 266° |
| 2026-05-07 18:43 | 51.63827 | -0.07486 | 8068 ft | 273 kts | 266° |
| 2026-05-07 18:44 | 51.63730 | -0.10554 | 7951 ft | 275 kts | 266° |
| 2026-05-07 18:44 | 51.63628 | -0.13634 | 7660 ft | 274 kts | 266° |
| 2026-05-07 18:44 | 51.63521 | -0.16650 | 7353 ft | 271 kts | 266° |
| 2026-05-07 18:44 | 51.63407 | -0.19689 | 7128 ft | 269 kts | 266° |
| 2026-05-07 18:45 | 51.63289 | -0.22680 | 7072 ft | 271 kts | 266° |
| 2026-05-07 18:45 | 51.63169 | -0.25723 | 7072 ft | 271 kts | 266° |
| 2026-05-07 18:45 | 51.63047 | -0.28768 | 7070 ft | 272 kts | 266° |
| 2026-05-07 18:45 | 51.62923 | -0.31809 | 7073 ft | 272 kts | 266° |
| 2026-05-07 18:46 | 51.62801 | -0.34816 | 7072 ft | 272 kts | 266° |
| 2026-05-07 18:46 | 51.62677 | -0.37873 | 7054 ft | 272 kts | 266° |
| 2026-05-07 18:46 | 51.62551 | -0.40926 | 7042 ft | 272 kts | 266° |
| 2026-05-07 18:46 | 51.62425 | -0.43940 | 7046 ft | 273 kts | 266° |
| 2026-05-07 18:47 | 51.62298 | -0.47002 | 7043 ft | 273 kts | 266° |
| 2026-05-07 18:47 | 51.62170 | -0.50059 | 7047 ft | 273 kts | 266° |
| 2026-05-07 18:47 | 51.62044 | -0.53079 | 6950 ft | 273 kts | 266° |
| 2026-05-07 18:47 | 51.61913 | -0.56136 | 6652 ft | 273 kts | 266° |
| 2026-05-07 18:48 | 51.61778 | -0.59143 | 6361 ft | 271 kts | 266° |
| 2026-05-07 18:48 | 51.61639 | -0.62184 | 6040 ft | 271 kts | 265° |
| 2026-05-07 18:48 | 51.61502 | -0.65214 | 5726 ft | 270 kts | 265° |
| 2026-05-07 18:48 | 51.61346 | -0.68174 | 5342 ft | 268 kts | 261° |
| 2026-05-07 18:49 | 51.60835 | -0.71015 | 4967 ft | 257 kts | 250° |
| 2026-05-07 18:49 | 51.60271 | -0.73665 | 4570 ft | 248 kts | 250° |
| 2026-05-07 18:49 | 51.59722 | -0.76264 | 4174 ft | 241 kts | 250° |
| 2026-05-07 18:49 | 51.59042 | -0.78648 | 3983 ft | 227 kts | 231° |
| 2026-05-07 18:50 | 51.58298 | -0.79755 | 3972 ft | 213 kts | 211° |
| 2026-05-07 18:50 | 51.56520 | -0.80424 | 3980 ft | 190 kts | 180° |
| 2026-05-07 18:50 | 51.55637 | -0.80462 | 3984 ft | 189 kts | 180° |
| 2026-05-07 18:50 | 51.54311 | -0.80517 | 3978 ft | 189 kts | 180° |
| 2026-05-07 18:51 | 51.53012 | -0.80542 | 3969 ft | 188 kts | 175° |
| 2026-05-07 18:51 | 51.51811 | -0.79776 | 3977 ft | 189 kts | 139° |
| 2026-05-07 18:51 | 51.51033 | -0.78121 | 3999 ft | 189 kts | 120° |
| 2026-05-07 18:51 | 51.50359 | -0.76317 | 3956 ft | 188 kts | 120° |
| 2026-05-07 18:52 | 51.49680 | -0.74499 | 3685 ft | 191 kts | 120° |
| 2026-05-07 18:52 | 51.48986 | -0.72638 | 3346 ft | 195 kts | 120° |
| 2026-05-07 18:52 | 51.48314 | -0.70828 | 3107 ft | 186 kts | 120° |
| 2026-05-07 18:52 | 51.47680 | -0.69068 | 2830 ft | 180 kts | 117° |
| 2026-05-07 18:53 | 51.47481 | -0.67041 | 2599 ft | 187 kts | 89° |
| 2026-05-07 18:53 | 51.47574 | -0.64949 | 2280 ft | 188 kts | 86° |
| 2026-05-07 18:53 | 51.47651 | -0.62860 | 1925 ft | 189 kts | 89° |
| 2026-05-07 18:53 | 51.47656 | -0.60804 | 1644 ft | 177 kts | 91° |
| 2026-05-07 18:54 | 51.47667 | -0.58917 | 1419 ft | 162 kts | 91° |
| 2026-05-07 18:54 | 51.47677 | -0.57075 | 1195 ft | 165 kts | 91° |
| 2026-05-07 18:54 | 51.47691 | -0.55290 | 956 ft | 156 kts | 91° |
| 2026-05-07 18:54 | 51.47701 | -0.53633 | 741 ft | 142 kts | 91° |
| 2026-05-07 18:55 | 51.47710 | -0.52089 | 573 ft | 140 kts | 92° |
| 2026-05-07 18:55 | 51.47719 | -0.50536 | 364 ft | 134 kts | 92° |
| 2026-05-07 18:55 | 51.47744 | -0.49028 | 198 ft | 142 kts | 92° |
| 2026-05-07 18:55 | 51.47750 | -0.47515 | 89 ft | 125 kts | 89° |
| 2026-05-07 18:56 | 51.47756 | -0.46329 | 98 ft | 90 kts | 89° |
| 2026-05-07 18:56 | 51.47756 | -0.45631 | 93 ft | 39 kts | 89° |
| 2026-05-07 18:56 | 51.47684 | -0.45475 | 94 ft | 13 kts | 171° |
| 2026-05-07 18:56 | 51.47649 | -0.45477 | 92 ft | 0 kts | 185° |
| 2026-05-07 18:58 | 51.47613 | -0.45478 | 91 ft | 9 kts | 178° |
| 2026-05-07 18:58 | 51.47549 | -0.45467 | 93 ft | 9 kts | 179° |
| 2026-05-07 18:58 | 51.47511 | -0.45520 | 98 ft | 7 kts | 250° |
| 2026-05-07 18:58 | 51.47506 | -0.45622 | 97 ft | 15 kts | 266° |
| 2026-05-07 18:59 | 51.47515 | -0.45859 | 92 ft | 24 kts | 272° |
| 2026-05-07 18:59 | 51.47515 | -0.46129 | 94 ft | 24 kts | 269° |
| 2026-05-07 18:59 | 51.47516 | -0.46415 | 93 ft | 26 kts | 270° |
| 2026-05-07 18:59 | 51.47516 | -0.46669 | 94 ft | 18 kts | 269° |
| 2026-05-07 19:00 | 51.47440 | -0.46752 | 94 ft | 12 kts | 159° |
| 2026-05-07 19:00 | 51.47357 | -0.46723 | 91 ft | 13 kts | 176° |
| 2026-05-07 19:00 | 51.47244 | -0.46720 | 90 ft | 19 kts | 180° |
| 2026-05-07 19:00 | 51.47094 | -0.46722 | 91 ft | 22 kts | 180° |
| 2026-05-07 19:01 | 51.46963 | -0.46627 | 93 ft | 15 kts | 146° |
| 2026-05-07 19:01 | 51.46881 | -0.46532 | 93 ft | 12 kts | 135° |
| 2026-05-07 19:01 | 51.46881 | -0.46465 | 94 ft | 7 kts | 71° |
| 2026-05-07 19:01 | 51.46903 | -0.46415 | 94 ft | 7 kts | 56° |
| 2026-05-07 19:02 | 51.46908 | -0.46403 | 90 ft | 0 kts | 56° |